Harney Peak, South Dakota
Current Conditions -  °F | °C
As of 8:53 PM on Saturday 22 Nov 2014 (Local Time) from KCUT Reporting Station
Broken Clouds Broken Clouds  
Wind Chill: 32°   Ceiling: 2000
Heat Index: 37°   Visibility: 10mi
Dew Point: 30°   Wind: 6mph
Humidity: 76%   Direction: 280°W
Pressure: 29.45"   Gusts: NA
Location:  43.6653°N, 103.766°W
Report Text: KCUT 230353Z AUTO 28005KT 10SM BKN020 BKN037 03/M01 A2945 RMK AO2 PK WND 27026/0301 SLP969 T00281011
Loading
Personal Weather Stations






























Interactive Weather Map New forecast layout! Learn more

10-Day Weather Forecast

Advertisements
Track Severe Weather on mobile